SWR2062 LSZH-LPPR
Flight info
| Callsign | SWR2062 |
|---|---|
| Flight time | 2h 18m |
| Altitude | 35000 |
| Route | VEBIT T50 ROTOS Z669 ULMES DCT VADAR DCT NINTU DCT MEBAK DCT REPSI DCT LERGA DCT MINSO DCT NARAK DCT AGN DCT LATEK DCT PPN DCT MIRPO DCT DGO DCT NEA DCT ZMR DCT ADORO DCT INKIT |
| Aircraft | A321/M-SDE3FGHIRWY/LB1 |
Departure
| Time | 2026-05-04 12:12 |
|---|---|
| Airport | Zürich Airport (LSZH) |
Arrival
| Time | 2026-05-04 14:30 |
|---|---|
| Airport | Francisco de Sá Carneiro Airport (LPPR) |
| Time | Latitude | Longitude | Altitude | Speed | Heading |
|---|---|---|---|---|---|
| 2026-05-04 12:05 | 47.45265 | 8.55732 | 1407 ft | 0 kts | 276° |
| 2026-05-04 12:06 | 47.45266 | 8.55715 | 1408 ft | 5 kts | 276° |
| 2026-05-04 12:07 | 47.45272 | 8.55628 | 1406 ft | 11 kts | 276° |
| 2026-05-04 12:07 | 47.45314 | 8.55552 | 1410 ft | 10 kts | 332° |
| 2026-05-04 12:07 | 47.45400 | 8.55492 | 1408 ft | 17 kts | 335° |
| 2026-05-04 12:07 | 47.45507 | 8.55418 | 1404 ft | 17 kts | 335° |
| 2026-05-04 12:08 | 47.45619 | 8.55344 | 1407 ft | 18 kts | 345° |
| 2026-05-04 12:08 | 47.45667 | 8.55450 | 1401 ft | 13 kts | 95° |
| 2026-05-04 12:08 | 47.45659 | 8.55572 | 1410 ft | 11 kts | 96° |
| 2026-05-04 12:08 | 47.45649 | 8.55708 | 1405 ft | 15 kts | 96° |
| 2026-05-04 12:09 | 47.45638 | 8.55870 | 1411 ft | 16 kts | 95° |
| 2026-05-04 12:09 | 47.45626 | 8.56038 | 1410 ft | 17 kts | 96° |
| 2026-05-04 12:09 | 47.45613 | 8.56210 | 1412 ft | 16 kts | 96° |
| 2026-05-04 12:09 | 47.45603 | 8.56362 | 1419 ft | 14 kts | 96° |
| 2026-05-04 12:10 | 47.45592 | 8.56518 | 1417 ft | 20 kts | 96° |
| 2026-05-04 12:10 | 47.45578 | 8.56716 | 1423 ft | 18 kts | 96° |
| 2026-05-04 12:10 | 47.45566 | 8.56887 | 1420 ft | 16 kts | 96° |
| 2026-05-04 12:10 | 47.45595 | 8.57011 | 1423 ft | 11 kts | 22° |
| 2026-05-04 12:11 | 47.45655 | 8.57013 | 1425 ft | 7 kts | 319° |
| 2026-05-04 12:11 | 47.45671 | 8.56866 | 1422 ft | 38 kts | 276° |
| 2026-05-04 12:11 | 47.45728 | 8.56102 | 1412 ft | 108 kts | 276° |
| 2026-05-04 12:11 | 47.45827 | 8.54712 | 1394 ft | 161 kts | 276° |
| 2026-05-04 12:12 | 47.45946 | 8.52979 | 1847 ft | 167 kts | 278° |
| 2026-05-04 12:12 | 47.46065 | 8.51259 | 2512 ft | 169 kts | 276° |
| 2026-05-04 12:12 | 47.46188 | 8.49470 | 2917 ft | 180 kts | 277° |
| 2026-05-04 12:12 | 47.46043 | 8.47595 | 3225 ft | 195 kts | 244° |
| 2026-05-04 12:13 | 47.45039 | 8.46169 | 3413 ft | 212 kts | 214° |
| 2026-05-04 12:14 | 47.37512 | 8.31385 | 7248 ft | 274 kts | 237° |
| 2026-05-04 12:15 | 47.36516 | 8.28977 | 8005 ft | 275 kts | 237° |
| 2026-05-04 12:15 | 47.35544 | 8.26575 | 8748 ft | 276 kts | 238° |
| 2026-05-04 12:15 | 47.34565 | 8.24136 | 9487 ft | 278 kts | 238° |
| 2026-05-04 12:15 | 47.33577 | 8.21674 | 10179 ft | 280 kts | 237° |
| 2026-05-04 12:16 | 47.32548 | 8.19121 | 10401 ft | 301 kts | 238° |
| 2026-05-04 12:16 | 47.31437 | 8.16368 | 10527 ft | 323 kts | 238° |
| 2026-05-04 12:16 | 47.30256 | 8.13444 | 10729 ft | 340 kts | 238° |
| 2026-05-04 12:16 | 47.29030 | 8.10412 | 11181 ft | 347 kts | 238° |
| 2026-05-04 12:17 | 47.27782 | 8.07337 | 11775 ft | 351 kts | 238° |
| 2026-05-04 12:17 | 47.26520 | 8.04240 | 12424 ft | 354 kts | 238° |
| 2026-05-04 12:17 | 47.25248 | 8.01134 | 13062 ft | 356 kts | 238° |
| 2026-05-04 12:17 | 47.23963 | 7.98004 | 13700 ft | 358 kts | 238° |
| 2026-05-04 12:18 | 47.22669 | 7.94853 | 14262 ft | 360 kts | 238° |
| 2026-05-04 12:18 | 47.21368 | 7.91691 | 14782 ft | 363 kts | 238° |
| 2026-05-04 12:18 | 47.20055 | 7.88493 | 15338 ft | 365 kts | 238° |
| 2026-05-04 12:18 | 47.18739 | 7.85287 | 15860 ft | 368 kts | 238° |
| 2026-05-04 12:19 | 47.17430 | 7.82093 | 16394 ft | 371 kts | 238° |
| 2026-05-04 12:19 | 47.16095 | 7.78837 | 16910 ft | 373 kts | 237° |
| 2026-05-04 12:19 | 47.15740 | 7.77974 | 17054 ft | 374 kts | 237° |
| 2026-05-04 12:19 | 47.14447 | 7.74833 | 17547 ft | 376 kts | 237° |
| 2026-05-04 12:20 | 47.13087 | 7.71541 | 18035 ft | 379 kts | 237° |
| 2026-05-04 12:20 | 47.11714 | 7.68219 | 18482 ft | 382 kts | 237° |
| 2026-05-04 12:20 | 47.10332 | 7.64875 | 18909 ft | 384 kts | 237° |
| 2026-05-04 12:20 | 47.08940 | 7.61516 | 19346 ft | 386 kts | 237° |
| 2026-05-04 12:21 | 47.07539 | 7.58141 | 19772 ft | 388 kts | 237° |
| 2026-05-04 12:21 | 47.06132 | 7.54750 | 20210 ft | 390 kts | 237° |
| 2026-05-04 12:21 | 47.04719 | 7.51341 | 20632 ft | 392 kts | 237° |
| 2026-05-04 12:21 | 47.03297 | 7.47916 | 21053 ft | 394 kts | 237° |
| 2026-05-04 12:22 | 47.02329 | 7.45590 | 21353 ft | 396 kts | 237° |
| 2026-05-04 12:22 | 47.01059 | 7.42543 | 21716 ft | 397 kts | 236° |
| 2026-05-04 12:22 | 47.00809 | 7.41943 | 21780 ft | 398 kts | 236° |
| 2026-05-04 12:22 | 46.99407 | 7.38588 | 22204 ft | 400 kts | 236° |
| 2026-05-04 12:23 | 46.98909 | 7.37399 | 22344 ft | 401 kts | 236° |
| 2026-05-04 12:23 | 46.97445 | 7.33908 | 22772 ft | 403 kts | 236° |
| 2026-05-04 12:23 | 46.95970 | 7.30401 | 23203 ft | 406 kts | 235° |
| 2026-05-04 12:23 | 46.94303 | 7.27072 | 23595 ft | 406 kts | 229° |
| 2026-05-04 12:24 | 46.92531 | 7.23842 | 23956 ft | 408 kts | 229° |
| 2026-05-04 12:24 | 46.90750 | 7.20603 | 24330 ft | 409 kts | 229° |
| 2026-05-04 12:24 | 46.88962 | 7.17356 | 24710 ft | 411 kts | 229° |
| 2026-05-04 12:24 | 46.87169 | 7.14094 | 25078 ft | 412 kts | 229° |
| 2026-05-04 12:25 | 46.85829 | 7.11655 | 25349 ft | 413 kts | 229° |
| 2026-05-04 12:25 | 46.84411 | 7.09080 | 25636 ft | 415 kts | 229° |
| 2026-05-04 12:25 | 46.82598 | 7.05790 | 26000 ft | 417 kts | 229° |
| 2026-05-04 12:26 | 46.80771 | 7.02483 | 26371 ft | 418 kts | 229° |
| 2026-05-04 12:26 | 46.78944 | 6.99181 | 26708 ft | 420 kts | 229° |
| 2026-05-04 12:26 | 46.77107 | 6.95859 | 27040 ft | 421 kts | 229° |
| 2026-05-04 12:26 | 46.75257 | 6.92518 | 27382 ft | 423 kts | 229° |
| 2026-05-04 12:27 | 46.73400 | 6.89171 | 27699 ft | 426 kts | 229° |
| 2026-05-04 12:27 | 46.71539 | 6.85818 | 28003 ft | 427 kts | 229° |
| 2026-05-04 12:27 | 46.69661 | 6.82438 | 28324 ft | 429 kts | 229° |
| 2026-05-04 12:27 | 46.67778 | 6.79055 | 28639 ft | 431 kts | 228° |
| 2026-05-04 12:28 | 46.65909 | 6.75634 | 28969 ft | 433 kts | 232° |
| 2026-05-04 12:28 | 46.64291 | 6.71936 | 29405 ft | 433 kts | 236° |
| 2026-05-04 12:28 | 46.62735 | 6.68192 | 29817 ft | 432 kts | 236° |
| 2026-05-04 12:28 | 46.61183 | 6.64459 | 30227 ft | 431 kts | 236° |
| 2026-05-04 12:29 | 46.59638 | 6.60748 | 30589 ft | 429 kts | 236° |
| 2026-05-04 12:29 | 46.58092 | 6.57047 | 30971 ft | 427 kts | 236° |
| 2026-05-04 12:29 | 46.56545 | 6.53357 | 31369 ft | 426 kts | 236° |
| 2026-05-04 12:29 | 46.55028 | 6.49743 | 31748 ft | 424 kts | 236° |
| 2026-05-04 12:30 | 46.53481 | 6.46064 | 32156 ft | 422 kts | 236° |
| 2026-05-04 12:30 | 46.51954 | 6.42435 | 32582 ft | 420 kts | 236° |
| 2026-05-04 12:30 | 46.50434 | 6.38825 | 33026 ft | 418 kts | 236° |
| 2026-05-04 12:30 | 46.48926 | 6.35242 | 33448 ft | 416 kts | 236° |
| 2026-05-04 12:31 | 46.47419 | 6.31673 | 33857 ft | 414 kts | 236° |
| 2026-05-04 12:31 | 46.45914 | 6.28113 | 34227 ft | 412 kts | 236° |
| 2026-05-04 12:31 | 46.44417 | 6.24576 | 34554 ft | 411 kts | 236° |
| 2026-05-04 12:31 | 46.42922 | 6.21047 | 34818 ft | 411 kts | 236° |
| 2026-05-04 12:32 | 46.41444 | 6.17559 | 34995 ft | 411 kts | 236° |
| 2026-05-04 12:32 | 46.38436 | 6.10490 | 35076 ft | 409 kts | 236° |
| 2026-05-04 12:33 | 46.35451 | 6.03483 | 35079 ft | 408 kts | 236° |
| 2026-05-04 12:33 | 46.32472 | 5.96502 | 35082 ft | 407 kts | 236° |
| 2026-05-04 12:34 | 46.29493 | 5.89540 | 35075 ft | 407 kts | 236° |
| 2026-05-04 12:34 | 46.26511 | 5.82588 | 35073 ft | 407 kts | 236° |
| 2026-05-04 12:35 | 46.23521 | 5.75643 | 35062 ft | 407 kts | 236° |
| 2026-05-04 12:35 | 46.20525 | 5.68707 | 35057 ft | 407 kts | 236° |
| 2026-05-04 12:36 | 46.17544 | 5.61820 | 35045 ft | 407 kts | 236° |
| 2026-05-04 12:36 | 46.14525 | 5.54861 | 35058 ft | 407 kts | 234° |
| 2026-05-04 12:37 | 46.11398 | 5.48124 | 35065 ft | 407 kts | 232° |
| 2026-05-04 12:37 | 46.08138 | 5.41473 | 35061 ft | 406 kts | 232° |
| 2026-05-04 12:38 | 46.04892 | 5.34828 | 35049 ft | 406 kts | 232° |
| 2026-05-04 12:38 | 46.01673 | 5.28162 | 35055 ft | 405 kts | 233° |
| 2026-05-04 12:39 | 45.98461 | 5.21500 | 35059 ft | 405 kts | 233° |
| 2026-05-04 12:39 | 45.95244 | 5.14841 | 35056 ft | 405 kts | 233° |
| 2026-05-04 12:40 | 45.92024 | 5.08201 | 35086 ft | 405 kts | 232° |
| 2026-05-04 12:40 | 45.88792 | 5.01564 | 35065 ft | 405 kts | 232° |
| 2026-05-04 12:41 | 45.85561 | 4.94951 | 35057 ft | 405 kts | 232° |
| 2026-05-04 12:41 | 45.82326 | 4.88339 | 35079 ft | 405 kts | 232° |
| 2026-05-04 12:42 | 45.79087 | 4.81719 | 35073 ft | 404 kts | 232° |
| 2026-05-04 12:42 | 45.75850 | 4.75132 | 35062 ft | 404 kts | 232° |
| 2026-05-04 12:43 | 45.72608 | 4.68560 | 35051 ft | 404 kts | 232° |
| 2026-05-04 12:43 | 45.69362 | 4.61986 | 35043 ft | 405 kts | 232° |
| 2026-05-04 12:44 | 45.66116 | 4.55401 | 35029 ft | 405 kts | 233° |
| 2026-05-04 12:44 | 45.62860 | 4.48821 | 35033 ft | 405 kts | 233° |
| 2026-05-04 12:45 | 45.59602 | 4.42255 | 35037 ft | 405 kts | 233° |
| 2026-05-04 12:45 | 45.56331 | 4.35695 | 35040 ft | 406 kts | 232° |
| 2026-05-04 12:46 | 45.53052 | 4.29144 | 35040 ft | 406 kts | 232° |
| 2026-05-04 12:46 | 45.49797 | 4.22629 | 35051 ft | 406 kts | 233° |
| 2026-05-04 12:47 | 45.46500 | 4.16053 | 35047 ft | 405 kts | 233° |
| 2026-05-04 12:47 | 45.43218 | 4.09530 | 35042 ft | 405 kts | 232° |
| 2026-05-04 12:48 | 45.39954 | 4.03067 | 35034 ft | 405 kts | 232° |
| 2026-05-04 12:48 | 45.36670 | 3.96563 | 35028 ft | 405 kts | 232° |
| 2026-05-04 12:49 | 45.33383 | 3.90067 | 35031 ft | 405 kts | 232° |
| 2026-05-04 12:49 | 45.30094 | 3.83582 | 35048 ft | 404 kts | 233° |
| 2026-05-04 12:50 | 45.26779 | 3.77082 | 35049 ft | 403 kts | 232° |
| 2026-05-04 12:50 | 45.23539 | 3.70673 | 35027 ft | 402 kts | 233° |
| 2026-05-04 12:51 | 45.20351 | 3.64164 | 35024 ft | 401 kts | 234° |
| 2026-05-04 12:51 | 45.17183 | 3.57663 | 35024 ft | 401 kts | 233° |
| 2026-05-04 12:52 | 45.13991 | 3.51189 | 35015 ft | 400 kts | 233° |
| 2026-05-04 12:52 | 45.10787 | 3.44735 | 35012 ft | 400 kts | 233° |
| 2026-05-04 12:53 | 45.07586 | 3.38299 | 35017 ft | 399 kts | 233° |
| 2026-05-04 12:53 | 45.04389 | 3.31878 | 35010 ft | 398 kts | 233° |
| 2026-05-04 12:54 | 45.01197 | 3.25489 | 35019 ft | 398 kts | 233° |
| 2026-05-04 12:54 | 44.98002 | 3.19100 | 35008 ft | 398 kts | 233° |
| 2026-05-04 12:55 | 44.94809 | 3.12720 | 35002 ft | 398 kts | 233° |
| 2026-05-04 12:55 | 44.91627 | 3.06387 | 35009 ft | 397 kts | 233° |
| 2026-05-04 12:56 | 44.88431 | 3.00038 | 35023 ft | 397 kts | 233° |
| 2026-05-04 12:56 | 44.85232 | 2.93698 | 35016 ft | 397 kts | 233° |
| 2026-05-04 12:57 | 44.82132 | 2.87271 | 35005 ft | 397 kts | 236° |
| 2026-05-04 12:57 | 44.79167 | 2.80716 | 34999 ft | 397 kts | 236° |
| 2026-05-04 12:58 | 44.76201 | 2.74166 | 34994 ft | 397 kts | 236° |
| 2026-05-04 12:58 | 44.73197 | 2.67646 | 34992 ft | 397 kts | 235° |
| 2026-05-04 12:59 | 44.70183 | 2.61155 | 34995 ft | 397 kts | 235° |
| 2026-05-04 12:59 | 44.67152 | 2.54645 | 34979 ft | 397 kts | 235° |
| 2026-05-04 13:00 | 44.64614 | 2.49204 | 34976 ft | 398 kts | 235° |
| 2026-05-04 13:00 | 44.61577 | 2.42700 | 34977 ft | 398 kts | 235° |
| 2026-05-04 13:01 | 44.58539 | 2.36202 | 34961 ft | 398 kts | 235° |
| 2026-05-04 13:01 | 44.55503 | 2.29718 | 34978 ft | 397 kts | 235° |
| 2026-05-04 13:02 | 44.52465 | 2.23245 | 34991 ft | 397 kts | 234° |
| 2026-05-04 13:02 | 44.49418 | 2.16780 | 34978 ft | 398 kts | 234° |
| 2026-05-04 13:03 | 44.46367 | 2.10314 | 34970 ft | 398 kts | 234° |
| 2026-05-04 13:03 | 44.43311 | 2.03855 | 34962 ft | 398 kts | 234° |
| 2026-05-04 13:04 | 44.40249 | 1.97402 | 34939 ft | 398 kts | 234° |
| 2026-05-04 13:04 | 44.37192 | 1.90960 | 34953 ft | 397 kts | 234° |
| 2026-05-04 13:05 | 44.34137 | 1.84535 | 34970 ft | 397 kts | 234° |
| 2026-05-04 13:05 | 44.32275 | 1.80630 | 34955 ft | 397 kts | 234° |
| 2026-05-04 13:06 | 44.29330 | 1.74105 | 34952 ft | 398 kts | 237° |
| 2026-05-04 13:06 | 44.26558 | 1.67425 | 34944 ft | 398 kts | 238° |
| 2026-05-04 13:07 | 44.23772 | 1.60767 | 34939 ft | 398 kts | 237° |
| 2026-05-04 13:07 | 44.20938 | 1.54136 | 34929 ft | 397 kts | 237° |
| 2026-05-04 13:08 | 44.18085 | 1.47550 | 34942 ft | 397 kts | 236° |
| 2026-05-04 13:08 | 44.15245 | 1.40990 | 34924 ft | 398 kts | 237° |
| 2026-05-04 13:09 | 44.12389 | 1.34377 | 34922 ft | 398 kts | 237° |
| 2026-05-04 13:09 | 44.09527 | 1.27776 | 34926 ft | 398 kts | 237° |
| 2026-05-04 13:10 | 44.08014 | 1.24294 | 34920 ft | 398 kts | 236° |
| 2026-05-04 13:10 | 44.05146 | 1.17698 | 34923 ft | 398 kts | 236° |
| 2026-05-04 13:11 | 44.02281 | 1.11125 | 34941 ft | 398 kts | 236° |
| 2026-05-04 13:11 | 43.99404 | 1.04547 | 34940 ft | 398 kts | 236° |
| 2026-05-04 13:12 | 43.96528 | 0.97986 | 34935 ft | 398 kts | 236° |
| 2026-05-04 13:12 | 43.93658 | 0.91425 | 34934 ft | 398 kts | 236° |
| 2026-05-04 13:13 | 43.90778 | 0.84876 | 34927 ft | 398 kts | 236° |
| 2026-05-04 13:13 | 43.87892 | 0.78333 | 34929 ft | 398 kts | 236° |
| 2026-05-04 13:14 | 43.85001 | 0.71796 | 34959 ft | 398 kts | 235° |
| 2026-05-04 13:14 | 43.82104 | 0.65264 | 34946 ft | 398 kts | 235° |
| 2026-05-04 13:15 | 43.79202 | 0.58738 | 34950 ft | 398 kts | 235° |
| 2026-05-04 13:15 | 43.76304 | 0.52219 | 34954 ft | 398 kts | 235° |
| 2026-05-04 13:16 | 43.73399 | 0.45695 | 34964 ft | 398 kts | 235° |
| 2026-05-04 13:16 | 43.70486 | 0.39181 | 34965 ft | 398 kts | 235° |
| 2026-05-04 13:17 | 43.67567 | 0.32661 | 34985 ft | 399 kts | 235° |
| 2026-05-04 13:17 | 43.64645 | 0.26151 | 34986 ft | 399 kts | 235° |
| 2026-05-04 13:18 | 43.61724 | 0.19643 | 34977 ft | 399 kts | 235° |
| 2026-05-04 13:18 | 43.58814 | 0.13195 | 34987 ft | 398 kts | 235° |
| 2026-05-04 13:19 | 43.55876 | 0.06717 | 34984 ft | 398 kts | 235° |
| 2026-05-04 13:19 | 43.52924 | 0.00209 | 34982 ft | 398 kts | 235° |
| 2026-05-04 13:20 | 43.49989 | -0.06266 | 34995 ft | 399 kts | 235° |
| 2026-05-04 13:20 | 43.47063 | -0.12703 | 34978 ft | 399 kts | 235° |
| 2026-05-04 13:21 | 43.44105 | -0.19185 | 34970 ft | 400 kts | 235° |
| 2026-05-04 13:21 | 43.41140 | -0.25665 | 34965 ft | 400 kts | 235° |
| 2026-05-04 13:22 | 43.38176 | -0.32133 | 34974 ft | 399 kts | 235° |
| 2026-05-04 13:22 | 43.35214 | -0.38599 | 34976 ft | 399 kts | 235° |
| 2026-05-04 13:23 | 43.32254 | -0.45042 | 34977 ft | 399 kts | 235° |
| 2026-05-04 13:23 | 43.29288 | -0.51475 | 34977 ft | 399 kts | 234° |
| 2026-05-04 13:24 | 43.26314 | -0.57900 | 34981 ft | 399 kts | 234° |
| 2026-05-04 13:24 | 43.23339 | -0.64324 | 34986 ft | 399 kts | 234° |
| 2026-05-04 13:25 | 43.18982 | -0.74021 | 34982 ft | 400 kts | 242° |
| 2026-05-04 13:25 | 43.16659 | -0.80948 | 35004 ft | 401 kts | 242° |
| 2026-05-04 13:26 | 43.14364 | -0.87900 | 34983 ft | 401 kts | 242° |
| 2026-05-04 13:26 | 43.12060 | -0.94863 | 34980 ft | 402 kts | 242° |
| 2026-05-04 13:27 | 43.09733 | -1.01831 | 34975 ft | 402 kts | 242° |
| 2026-05-04 13:27 | 43.07401 | -1.08783 | 34980 ft | 403 kts | 242° |
| 2026-05-04 13:28 | 43.05060 | -1.15758 | 35010 ft | 402 kts | 242° |
| 2026-05-04 13:28 | 43.02720 | -1.22720 | 35002 ft | 404 kts | 242° |
| 2026-05-04 13:29 | 43.00371 | -1.29695 | 34974 ft | 404 kts | 242° |
| 2026-05-04 13:29 | 42.98016 | -1.36665 | 34980 ft | 404 kts | 242° |
| 2026-05-04 13:30 | 42.95670 | -1.43583 | 34987 ft | 404 kts | 242° |
| 2026-05-04 13:30 | 42.93311 | -1.50533 | 34993 ft | 403 kts | 242° |
| 2026-05-04 13:31 | 42.90944 | -1.57485 | 34985 ft | 404 kts | 242° |
| 2026-05-04 13:31 | 42.88565 | -1.64444 | 34981 ft | 406 kts | 242° |
| 2026-05-04 13:32 | 42.86182 | -1.71423 | 34981 ft | 407 kts | 242° |
| 2026-05-04 13:32 | 42.83772 | -1.78427 | 34983 ft | 408 kts | 242° |
| 2026-05-04 13:33 | 42.81356 | -1.85429 | 34986 ft | 408 kts | 242° |
| 2026-05-04 13:33 | 42.78944 | -1.92436 | 35001 ft | 409 kts | 242° |
| 2026-05-04 13:34 | 42.76515 | -1.99451 | 34986 ft | 410 kts | 242° |
| 2026-05-04 13:34 | 42.74077 | -2.06488 | 34977 ft | 412 kts | 242° |
| 2026-05-04 13:35 | 42.70402 | -2.17053 | 34982 ft | 413 kts | 242° |
| 2026-05-04 13:36 | 42.67943 | -2.24105 | 34984 ft | 413 kts | 242° |
| 2026-05-04 13:36 | 42.65474 | -2.31155 | 35003 ft | 413 kts | 243° |
| 2026-05-04 13:37 | 42.62995 | -2.38210 | 34990 ft | 415 kts | 243° |
| 2026-05-04 13:37 | 42.60502 | -2.45291 | 34987 ft | 416 kts | 243° |
| 2026-05-04 13:38 | 42.58007 | -2.52378 | 34977 ft | 416 kts | 243° |
| 2026-05-04 13:38 | 42.55926 | -2.58270 | 34984 ft | 416 kts | 243° |
| 2026-05-04 13:39 | 42.53418 | -2.65349 | 34989 ft | 416 kts | 243° |
| 2026-05-04 13:39 | 42.50911 | -2.72429 | 35002 ft | 417 kts | 243° |
| 2026-05-04 13:40 | 42.48395 | -2.79506 | 34996 ft | 417 kts | 243° |
| 2026-05-04 13:40 | 42.45862 | -2.86589 | 34994 ft | 418 kts | 243° |
| 2026-05-04 13:41 | 42.43358 | -2.93698 | 35001 ft | 418 kts | 244° |
| 2026-05-04 13:41 | 42.40957 | -3.00876 | 35002 ft | 419 kts | 246° |
| 2026-05-04 13:42 | 42.37923 | -3.11961 | 35011 ft | 419 kts | 250° |
| 2026-05-04 13:42 | 42.36048 | -3.19427 | 35002 ft | 419 kts | 250° |
| 2026-05-04 13:43 | 42.34103 | -3.26850 | 35019 ft | 418 kts | 249° |
| 2026-05-04 13:43 | 42.32109 | -3.34231 | 35030 ft | 418 kts | 249° |
| 2026-05-04 13:44 | 42.30120 | -3.41594 | 35038 ft | 417 kts | 249° |
| 2026-05-04 13:44 | 42.28136 | -3.48967 | 35054 ft | 417 kts | 249° |
| 2026-05-04 13:45 | 42.26158 | -3.56311 | 35051 ft | 416 kts | 249° |
| 2026-05-04 13:45 | 42.24176 | -3.63626 | 35046 ft | 415 kts | 249° |
| 2026-05-04 13:46 | 42.22183 | -3.70936 | 35040 ft | 415 kts | 249° |
| 2026-05-04 13:46 | 42.20187 | -3.78235 | 35006 ft | 414 kts | 249° |
| 2026-05-04 13:47 | 42.18193 | -3.85527 | 35015 ft | 414 kts | 249° |
| 2026-05-04 13:47 | 42.16203 | -3.92818 | 35006 ft | 414 kts | 249° |
| 2026-05-04 13:48 | 42.14206 | -4.00099 | 35003 ft | 414 kts | 249° |
| 2026-05-04 13:48 | 42.12195 | -4.07369 | 34976 ft | 414 kts | 249° |
| 2026-05-04 13:49 | 42.10180 | -4.14623 | 34987 ft | 413 kts | 249° |
| 2026-05-04 13:49 | 42.08181 | -4.21821 | 34990 ft | 412 kts | 249° |
| 2026-05-04 13:50 | 42.06160 | -4.29042 | 34987 ft | 412 kts | 249° |
| 2026-05-04 13:50 | 42.04128 | -4.36296 | 34988 ft | 412 kts | 249° |
| 2026-05-04 13:51 | 42.02120 | -4.43463 | 34987 ft | 412 kts | 249° |
| 2026-05-04 13:51 | 42.00091 | -4.50664 | 34989 ft | 412 kts | 249° |
| 2026-05-04 13:52 | 41.97039 | -4.61453 | 34991 ft | 412 kts | 249° |
| 2026-05-04 13:53 | 41.94997 | -4.68641 | 34985 ft | 412 kts | 249° |
| 2026-05-04 13:53 | 41.92953 | -4.75830 | 34994 ft | 412 kts | 249° |
| 2026-05-04 13:54 | 41.89883 | -4.86606 | 34994 ft | 412 kts | 249° |
| 2026-05-04 13:55 | 41.86801 | -4.97353 | 34994 ft | 411 kts | 249° |
| 2026-05-04 13:55 | 41.83716 | -5.08086 | 34994 ft | 411 kts | 249° |
| 2026-05-04 13:56 | 41.81645 | -5.15233 | 34997 ft | 411 kts | 249° |
| 2026-05-04 13:57 | 41.78536 | -5.25957 | 34993 ft | 411 kts | 249° |
| 2026-05-04 13:58 | 41.74387 | -5.40215 | 34996 ft | 411 kts | 249° |
| 2026-05-04 13:58 | 41.71261 | -5.50910 | 34985 ft | 410 kts | 249° |
| 2026-05-04 13:59 | 41.69174 | -5.58022 | 34986 ft | 410 kts | 249° |
| 2026-05-04 14:00 | 41.66039 | -5.68628 | 34982 ft | 410 kts | 249° |
| 2026-05-04 14:00 | 41.63571 | -5.79560 | 34666 ft | 408 kts | 255° |
| 2026-05-04 14:01 | 41.62829 | -5.83216 | 34431 ft | 407 kts | 255° |
| 2026-05-04 14:01 | 41.62090 | -5.86863 | 34180 ft | 405 kts | 255° |
| 2026-05-04 14:01 | 41.60606 | -5.94106 | 33680 ft | 403 kts | 255° |
| 2026-05-04 14:02 | 41.59857 | -5.97718 | 33404 ft | 403 kts | 255° |
| 2026-05-04 14:02 | 41.59103 | -6.01320 | 33138 ft | 404 kts | 255° |
| 2026-05-04 14:02 | 41.58342 | -6.04938 | 32867 ft | 404 kts | 255° |
| 2026-05-04 14:02 | 41.57582 | -6.08542 | 32595 ft | 404 kts | 255° |
| 2026-05-04 14:03 | 41.56822 | -6.12155 | 32348 ft | 404 kts | 255° |
| 2026-05-04 14:03 | 41.56062 | -6.15768 | 32095 ft | 404 kts | 255° |
| 2026-05-04 14:03 | 41.55301 | -6.19382 | 31836 ft | 404 kts | 255° |
| 2026-05-04 14:03 | 41.54537 | -6.22996 | 31579 ft | 404 kts | 255° |
| 2026-05-04 14:04 | 41.53005 | -6.30223 | 31079 ft | 405 kts | 254° |
| 2026-05-04 14:04 | 41.52239 | -6.33829 | 30830 ft | 405 kts | 254° |
| 2026-05-04 14:04 | 41.51468 | -6.37453 | 30585 ft | 405 kts | 254° |
| 2026-05-04 14:05 | 41.49776 | -6.44628 | 30016 ft | 406 kts | 249° |
| 2026-05-04 14:05 | 41.48735 | -6.48126 | 29485 ft | 405 kts | 249° |
| 2026-05-04 14:05 | 41.47687 | -6.51594 | 28971 ft | 402 kts | 249° |
| 2026-05-04 14:06 | 41.46645 | -6.55034 | 28474 ft | 399 kts | 249° |
| 2026-05-04 14:06 | 41.45611 | -6.58451 | 27983 ft | 396 kts | 249° |
| 2026-05-04 14:06 | 41.44583 | -6.61844 | 27493 ft | 393 kts | 249° |
| 2026-05-04 14:06 | 41.43601 | -6.65234 | 27036 ft | 391 kts | 252° |
| 2026-05-04 14:07 | 41.42763 | -6.68671 | 26774 ft | 390 kts | 253° |
| 2026-05-04 14:07 | 41.41968 | -6.72116 | 26517 ft | 388 kts | 253° |
| 2026-05-04 14:07 | 41.41197 | -6.75567 | 26259 ft | 387 kts | 253° |
| 2026-05-04 14:07 | 41.40435 | -6.79000 | 26008 ft | 386 kts | 253° |
| 2026-05-04 14:08 | 41.39672 | -6.82420 | 25751 ft | 384 kts | 253° |
| 2026-05-04 14:08 | 41.38906 | -6.85825 | 25527 ft | 383 kts | 253° |
| 2026-05-04 14:08 | 41.38138 | -6.89213 | 25271 ft | 381 kts | 253° |
| 2026-05-04 14:08 | 41.37368 | -6.92585 | 25023 ft | 380 kts | 253° |
| 2026-05-04 14:09 | 41.35818 | -6.99288 | 24538 ft | 378 kts | 253° |
| 2026-05-04 14:09 | 41.35047 | -7.02617 | 24306 ft | 377 kts | 253° |
| 2026-05-04 14:10 | 41.33505 | -7.09265 | 23813 ft | 375 kts | 253° |
| 2026-05-04 14:10 | 41.32736 | -7.12579 | 23577 ft | 374 kts | 253° |
| 2026-05-04 14:10 | 41.31968 | -7.15885 | 23301 ft | 373 kts | 253° |
| 2026-05-04 14:10 | 41.31201 | -7.19180 | 23027 ft | 372 kts | 253° |
| 2026-05-04 14:11 | 41.30436 | -7.22462 | 22757 ft | 371 kts | 253° |
| 2026-05-04 14:11 | 41.28923 | -7.28981 | 22214 ft | 368 kts | 253° |
| 2026-05-04 14:11 | 41.28170 | -7.32225 | 21960 ft | 367 kts | 253° |
| 2026-05-04 14:12 | 41.27415 | -7.35458 | 21690 ft | 365 kts | 253° |
| 2026-05-04 14:12 | 41.26659 | -7.38678 | 21422 ft | 364 kts | 253° |
| 2026-05-04 14:12 | 41.25175 | -7.44970 | 20766 ft | 349 kts | 253° |
| 2026-05-04 14:13 | 41.24456 | -7.48018 | 20374 ft | 343 kts | 253° |
| 2026-05-04 14:13 | 41.23751 | -7.51012 | 19995 ft | 337 kts | 254° |
| 2026-05-04 14:13 | 41.23055 | -7.53959 | 19607 ft | 332 kts | 254° |
| 2026-05-04 14:13 | 41.22365 | -7.56881 | 19238 ft | 331 kts | 254° |
| 2026-05-04 14:14 | 41.21668 | -7.59825 | 18866 ft | 330 kts | 254° |
| 2026-05-04 14:14 | 41.20305 | -7.65567 | 18080 ft | 326 kts | 254° |
| 2026-05-04 14:14 | 41.19615 | -7.68468 | 17681 ft | 326 kts | 254° |
| 2026-05-04 14:15 | 41.18264 | -7.74139 | 16895 ft | 323 kts | 254° |
| 2026-05-04 14:15 | 41.16914 | -7.79818 | 16096 ft | 322 kts | 254° |
| 2026-05-04 14:16 | 41.15569 | -7.85448 | 15299 ft | 319 kts | 253° |
| 2026-05-04 14:16 | 41.14898 | -7.88245 | 14893 ft | 318 kts | 253° |
| 2026-05-04 14:17 | 41.13560 | -7.93825 | 14092 ft | 316 kts | 253° |
| 2026-05-04 14:17 | 41.12895 | -7.96595 | 13668 ft | 314 kts | 254° |
| 2026-05-04 14:17 | 41.11796 | -8.01156 | 12962 ft | 311 kts | 253° |
| 2026-05-04 14:18 | 41.11135 | -8.03897 | 12554 ft | 311 kts | 253° |
| 2026-05-04 14:18 | 41.09827 | -8.09317 | 11741 ft | 307 kts | 254° |
| 2026-05-04 14:19 | 41.08526 | -8.14666 | 10902 ft | 303 kts | 253° |
| 2026-05-04 14:19 | 41.07887 | -8.17295 | 10636 ft | 294 kts | 253° |
| 2026-05-04 14:19 | 41.07270 | -8.19827 | 10517 ft | 283 kts | 254° |
| 2026-05-04 14:19 | 41.06674 | -8.22272 | 10353 ft | 274 kts | 254° |
| 2026-05-04 14:20 | 41.06091 | -8.24657 | 10093 ft | 270 kts | 254° |
| 2026-05-04 14:20 | 41.05514 | -8.27020 | 9934 ft | 271 kts | 254° |
| 2026-05-04 14:20 | 41.04938 | -8.29392 | 9794 ft | 271 kts | 253° |
| 2026-05-04 14:21 | 41.03769 | -8.34188 | 9455 ft | 275 kts | 254° |
| 2026-05-04 14:21 | 41.03185 | -8.36585 | 9120 ft | 273 kts | 254° |
| 2026-05-04 14:21 | 41.02606 | -8.38962 | 8747 ft | 269 kts | 255° |
| 2026-05-04 14:21 | 41.02031 | -8.41317 | 8375 ft | 268 kts | 254° |
| 2026-05-04 14:22 | 41.01454 | -8.43662 | 8012 ft | 267 kts | 254° |
| 2026-05-04 14:22 | 41.00882 | -8.45994 | 7609 ft | 264 kts | 254° |
| 2026-05-04 14:22 | 41.00339 | -8.48241 | 7244 ft | 248 kts | 258° |
| 2026-05-04 14:22 | 41.00007 | -8.50403 | 6904 ft | 235 kts | 261° |
| 2026-05-04 14:23 | 40.99387 | -8.54580 | 6212 ft | 228 kts | 262° |
| 2026-05-04 14:23 | 40.99082 | -8.56609 | 5864 ft | 220 kts | 261° |
| 2026-05-04 14:23 | 40.98878 | -8.58552 | 5560 ft | 209 kts | 276° |
| 2026-05-04 14:24 | 40.99311 | -8.60328 | 5270 ft | 203 kts | 304° |
| 2026-05-04 14:24 | 41.00341 | -8.61559 | 4987 ft | 200 kts | 331° |
| 2026-05-04 14:24 | 41.01652 | -8.62049 | 4677 ft | 191 kts | 345° |
| 2026-05-04 14:24 | 41.02912 | -8.62379 | 4380 ft | 181 kts | 345° |
| 2026-05-04 14:25 | 41.04141 | -8.62706 | 4107 ft | 180 kts | 345° |
| 2026-05-04 14:25 | 41.06593 | -8.63363 | 3591 ft | 178 kts | 345° |
| 2026-05-04 14:25 | 41.07804 | -8.63684 | 3346 ft | 176 kts | 344° |
| 2026-05-04 14:26 | 41.08990 | -8.63992 | 3075 ft | 172 kts | 345° |
| 2026-05-04 14:26 | 41.10154 | -8.64296 | 2842 ft | 168 kts | 344° |
| 2026-05-04 14:26 | 41.11300 | -8.64595 | 2625 ft | 165 kts | 345° |
| 2026-05-04 14:26 | 41.12398 | -8.64879 | 2409 ft | 157 kts | 344° |
| 2026-05-04 14:27 | 41.13460 | -8.65156 | 2211 ft | 154 kts | 344° |
| 2026-05-04 14:27 | 41.14483 | -8.65422 | 2028 ft | 144 kts | 343° |
| 2026-05-04 14:27 | 41.15448 | -8.65672 | 1824 ft | 140 kts | 343° |
| 2026-05-04 14:27 | 41.16392 | -8.65922 | 1616 ft | 138 kts | 344° |
| 2026-05-04 14:28 | 41.17339 | -8.66171 | 1443 ft | 138 kts | 345° |
| 2026-05-04 14:28 | 41.18271 | -8.66424 | 1266 ft | 137 kts | 347° |
| 2026-05-04 14:28 | 41.19205 | -8.66671 | 1074 ft | 136 kts | 344° |
| 2026-05-04 14:28 | 41.20133 | -8.66911 | 905 ft | 136 kts | 343° |
| 2026-05-04 14:29 | 41.21986 | -8.67394 | 543 ft | 135 kts | 345° |
| 2026-05-04 14:29 | 41.23841 | -8.67871 | 230 ft | 128 kts | 346° |
| 2026-05-04 14:30 | 41.24534 | -8.68057 | 207 ft | 61 kts | 349° |
| 2026-05-04 14:30 | 41.24843 | -8.68134 | 200 ft | 41 kts | 349° |
| 2026-05-04 14:30 | 41.25259 | -8.68111 | 180 ft | 15 kts | 23° |
| 2026-05-04 14:31 | 41.25260 | -8.68020 | 182 ft | 11 kts | 148° |
| 2026-05-04 14:31 | 41.25014 | -8.67949 | 206 ft | 22 kts | 169° |
| 2026-05-04 14:32 | 41.24748 | -8.67824 | 210 ft | 25 kts | 163° |
| 2026-05-04 14:32 | 41.24585 | -8.67782 | 215 ft | 21 kts | 169° |
| 2026-05-04 14:32 | 41.24458 | -8.67748 | 222 ft | 16 kts | 168° |
| 2026-05-04 14:32 | 41.24355 | -8.67721 | 228 ft | 19 kts | 169° |
| 2026-05-04 14:33 | 41.24258 | -8.67627 | 235 ft | 4 kts | 127° |
| 2026-05-04 14:33 | 41.24245 | -8.67604 | 236 ft | 6 kts | 130° |
| 2026-05-04 14:33 | 41.24116 | -8.67552 | 238 ft | 24 kts | 168° |
| 2026-05-04 14:33 | 41.23962 | -8.67512 | 238 ft | 18 kts | 167° |
| 2026-05-04 14:34 | 41.23847 | -8.67481 | 239 ft | 12 kts | 168° |
| 2026-05-04 14:34 | 41.23826 | -8.67418 | 243 ft | 5 kts | 83° |
| 2026-05-04 14:34 | 41.23829 | -8.67400 | 244 ft | 3 kts | 79° |
| 2026-05-04 14:34 | 41.23831 | -8.67385 | 245 ft | 0 kts | 79° |